createdAt,value
2022-09-14T00:00:07.980Z,1003.30
2022-09-14T00:01:24.149Z,1003.30
2022-09-14T00:02:08.094Z,1003.34
2022-09-14T00:03:08.200Z,1003.35
2022-09-14T00:04:07.982Z,1003.39
2022-09-14T00:05:08.034Z,1003.33
2022-09-14T00:06:07.984Z,1003.35
2022-09-14T00:07:07.985Z,1003.34
2022-09-14T00:08:07.979Z,1003.37
2022-09-14T00:09:07.986Z,1003.37
2022-09-14T00:10:07.985Z,1003.35
2022-09-14T00:11:07.984Z,1003.36
2022-09-14T00:12:07.982Z,1003.34
2022-09-14T00:13:07.984Z,1003.31
2022-09-14T00:14:07.982Z,1003.35
2022-09-14T00:15:07.984Z,1003.31
2022-09-14T00:16:08.010Z,1003.31
2022-09-14T00:17:08.031Z,1003.31
2022-09-14T00:18:07.987Z,1003.30
2022-09-14T00:19:08.002Z,1003.26
2022-09-14T00:20:07.991Z,1003.23
2022-09-14T00:21:07.984Z,1003.23
2022-09-14T00:22:07.986Z,1003.23
2022-09-14T00:23:07.984Z,1003.21
2022-09-14T00:24:07.989Z,1003.18
2022-09-14T00:25:07.995Z,1003.19
2022-09-14T00:26:07.988Z,1003.17
2022-09-14T00:27:07.991Z,1003.14
2022-09-14T00:28:07.987Z,1003.14
2022-09-14T00:29:07.987Z,1003.13
2022-09-14T00:30:07.986Z,1003.16
2022-09-14T00:31:07.983Z,1003.14
2022-09-14T00:32:08.071Z,1003.13
2022-09-14T00:33:07.992Z,1003.13
2022-09-14T00:34:07.988Z,1003.11
2022-09-14T00:35:08.009Z,1003.06
2022-09-14T00:36:07.989Z,1003.06
2022-09-14T00:37:07.989Z,1003.03
2022-09-14T00:38:07.988Z,1003.04
2022-09-14T00:39:07.983Z,1003.06
2022-09-14T00:40:08.038Z,1003.08
2022-09-14T00:41:07.987Z,1003.01
2022-09-14T00:42:07.987Z,1002.98
2022-09-14T00:43:07.995Z,1002.97
2022-09-14T00:44:07.989Z,1002.98
2022-09-14T00:45:07.987Z,1002.99
2022-09-14T00:46:08.037Z,1002.99
2022-09-14T00:47:07.992Z,1002.97
2022-09-14T00:48:07.986Z,1002.96
2022-09-14T00:49:07.991Z,1003.00
2022-09-14T00:50:07.991Z,1002.97
2022-09-14T00:51:08.006Z,1002.89
2022-09-14T00:52:07.992Z,1002.96
2022-09-14T00:53:07.990Z,1002.97
2022-09-14T00:54:07.987Z,1002.91
2022-09-14T00:55:07.987Z,1002.88
2022-09-14T00:56:07.987Z,1002.88
2022-09-14T00:57:07.996Z,1002.90
2022-09-14T00:58:07.989Z,1002.88
2022-09-14T00:59:07.990Z,1002.91
2022-09-14T01:00:07.989Z,1002.85
2022-09-14T01:01:08.059Z,1002.85
2022-09-14T01:02:08.050Z,1002.84
2022-09-14T01:03:07.991Z,1002.84
2022-09-14T01:04:07.987Z,1002.82
2022-09-14T01:05:07.989Z,1002.82
2022-09-14T01:06:07.988Z,1002.81
2022-09-14T01:07:08.100Z,1002.85
2022-09-14T01:08:07.989Z,1002.83
2022-09-14T01:09:07.989Z,1002.85
2022-09-14T01:10:07.997Z,1002.86
2022-09-14T01:11:07.992Z,1002.84
2022-09-14T01:12:07.993Z,1002.79
2022-09-14T01:13:07.989Z,1002.80
2022-09-14T01:14:07.990Z,1002.77
2022-09-14T01:15:07.991Z,1002.80
2022-09-14T01:16:08.057Z,1002.83
2022-09-14T01:17:07.991Z,1002.76
2022-09-14T01:18:07.989Z,1002.79
2022-09-14T01:19:07.988Z,1002.77
2022-09-14T01:20:07.991Z,1002.74
2022-09-14T01:21:07.993Z,1002.74
2022-09-14T01:22:07.988Z,1002.75
2022-09-14T01:23:08.011Z,1002.71
2022-09-14T01:24:07.988Z,1002.77
2022-09-14T01:25:07.990Z,1002.74
2022-09-14T01:26:07.987Z,1002.73
2022-09-14T01:27:07.987Z,1002.71
2022-09-14T01:28:07.993Z,1002.72
2022-09-14T01:29:07.993Z,1002.72
2022-09-14T01:30:07.991Z,1002.74
2022-09-14T01:31:08.031Z,1002.68
2022-09-14T01:32:07.996Z,1002.73
2022-09-14T01:33:07.992Z,1002.72
2022-09-14T01:34:07.991Z,1002.74
2022-09-14T01:35:07.989Z,1002.78
2022-09-14T01:36:07.992Z,1002.75
2022-09-14T01:37:08.007Z,1002.74
2022-09-14T01:38:07.997Z,1002.77
2022-09-14T01:39:08.014Z,1002.71
2022-09-14T01:40:08.080Z,1002.75
2022-09-14T01:41:07.991Z,1002.72
2022-09-14T01:42:07.991Z,1002.72
2022-09-14T01:43:07.989Z,1002.73
2022-09-14T01:44:07.995Z,1002.73
2022-09-14T01:45:07.993Z,1002.76
2022-09-14T01:46:08.052Z,1002.78
2022-09-14T01:47:07.992Z,1002.75
2022-09-14T01:48:07.993Z,1002.75
2022-09-14T01:49:07.994Z,1002.70
2022-09-14T01:50:07.992Z,1002.74
2022-09-14T01:51:07.993Z,1002.77
2022-09-14T01:52:07.988Z,1002.73
2022-09-14T01:53:07.992Z,1002.71
2022-09-14T01:54:07.988Z,1002.65
2022-09-14T01:55:08.100Z,1002.67
2022-09-14T01:56:08.011Z,1002.68
2022-09-14T01:57:07.992Z,1002.69
2022-09-14T01:58:07.990Z,1002.63
2022-09-14T01:59:07.993Z,1002.67
2022-09-14T02:00:07.991Z,1002.70
2022-09-14T02:01:08.135Z,1002.67
2022-09-14T02:02:08.086Z,1002.71
2022-09-14T02:03:07.993Z,1002.74
2022-09-14T02:04:07.989Z,1002.73
2022-09-14T02:05:07.993Z,1002.81
2022-09-14T02:06:07.997Z,1002.81
2022-09-14T02:07:07.991Z,1002.81
2022-09-14T02:08:07.989Z,1002.77
2022-09-14T02:09:07.994Z,1002.80
2022-09-14T02:10:08.043Z,1002.84
2022-09-14T02:11:08.023Z,1002.81
2022-09-14T02:12:07.989Z,1002.80
2022-09-14T02:13:07.991Z,1002.81
2022-09-14T02:14:07.992Z,1002.79
2022-09-14T02:15:07.996Z,1002.79
2022-09-14T02:16:08.093Z,1002.73
2022-09-14T02:17:07.993Z,1002.72
2022-09-14T02:18:07.992Z,1002.73
2022-09-14T02:19:07.989Z,1002.73
2022-09-14T02:20:07.992Z,1002.72
2022-09-14T02:21:07.994Z,1002.72
2022-09-14T02:22:07.993Z,1002.68
2022-09-14T02:23:07.990Z,1002.65
2022-09-14T02:24:07.998Z,1002.67
2022-09-14T02:25:07.991Z,1002.68
2022-09-14T02:26:07.988Z,1002.69
2022-09-14T02:27:08.014Z,1002.73
2022-09-14T02:28:07.992Z,1002.74
2022-09-14T02:29:07.993Z,1002.71
2022-09-14T02:30:07.993Z,1002.71
2022-09-14T02:31:08.127Z,1002.63
2022-09-14T02:32:07.990Z,1002.60
2022-09-14T02:33:07.990Z,1002.63
2022-09-14T02:34:07.992Z,1002.65
2022-09-14T02:35:07.989Z,1002.65
2022-09-14T02:36:07.992Z,1002.66
2022-09-14T02:37:07.987Z,1002.65
2022-09-14T02:38:07.988Z,1002.64
2022-09-14T02:39:07.996Z,1002.66
2022-09-14T02:40:08.010Z,1002.58
2022-09-14T02:41:07.989Z,1002.64
2022-09-14T02:42:07.996Z,1002.63
2022-09-14T02:43:08.008Z,1002.65
2022-09-14T02:44:07.990Z,1002.64
2022-09-14T02:45:07.985Z,1002.63
2022-09-14T02:46:07.988Z,1002.59
2022-09-14T02:47:08.053Z,1002.56
2022-09-14T02:48:07.987Z,1002.55
2022-09-14T02:49:07.990Z,1002.54
2022-09-14T02:50:07.991Z,1002.55
2022-09-14T02:51:07.990Z,1002.55
2022-09-14T02:52:07.989Z,1002.50
2022-09-14T02:53:07.991Z,1002.48
2022-09-14T02:54:07.994Z,1002.49
2022-09-14T02:55:07.999Z,1002.49
2022-09-14T02:56:07.990Z,1002.48
2022-09-14T02:57:07.986Z,1002.53
2022-09-14T02:58:07.990Z,1002.50
2022-09-14T02:59:08.008Z,1002.54
2022-09-14T03:00:07.983Z,1002.52
2022-09-14T03:01:08.090Z,1002.56
2022-09-14T03:02:08.038Z,1002.59
2022-09-14T03:03:07.989Z,1002.54
2022-09-14T03:04:07.993Z,1002.58
2022-09-14T03:05:07.993Z,1002.57
2022-09-14T03:06:07.991Z,1002.51
2022-09-14T03:07:07.987Z,1002.55
2022-09-14T03:08:07.989Z,1002.53
2022-09-14T03:09:07.991Z,1002.53
2022-09-14T03:10:07.988Z,1002.56
2022-09-14T03:11:07.989Z,1002.51
2022-09-14T03:12:07.986Z,1002.54
2022-09-14T03:13:07.990Z,1002.55
2022-09-14T03:14:07.987Z,1002.53
2022-09-14T03:15:08.009Z,1002.52
2022-09-14T03:16:08.076Z,1002.51
2022-09-14T03:17:07.989Z,1002.50
2022-09-14T03:18:12.288Z,1002.50
2022-09-14T03:19:07.989Z,1002.51
2022-09-14T03:20:07.988Z,1002.52
2022-09-14T03:21:07.989Z,1002.53
2022-09-14T03:22:08.003Z,1002.53
2022-09-14T03:23:07.990Z,1002.54
2022-09-14T03:24:07.987Z,1002.54
2022-09-14T03:25:07.986Z,1002.51
2022-09-14T03:26:07.986Z,1002.53
2022-09-14T03:27:07.996Z,1002.53
2022-09-14T03:28:07.988Z,1002.52
2022-09-14T03:29:07.993Z,1002.54
2022-09-14T03:30:07.989Z,1002.54
2022-09-14T03:31:08.091Z,1002.58
2022-09-14T03:32:07.983Z,1002.56
2022-09-14T03:33:07.990Z,1002.58
2022-09-14T03:34:07.986Z,1002.58
2022-09-14T03:35:07.989Z,1002.59
2022-09-14T03:36:07.990Z,1002.53
2022-09-14T03:37:07.987Z,1002.53
2022-09-14T03:38:07.982Z,1002.51
2022-09-14T03:39:07.976Z,1002.51
2022-09-14T03:40:08.056Z,1002.51
2022-09-14T03:41:07.978Z,1002.52
2022-09-14T03:42:07.980Z,1002.45
2022-09-14T03:43:07.978Z,1002.44
2022-09-14T03:44:07.981Z,1002.43
2022-09-14T03:45:07.978Z,1002.43
2022-09-14T03:46:08.051Z,1002.45
2022-09-14T03:47:08.068Z,1002.44
2022-09-14T03:48:07.979Z,1002.44
2022-09-14T03:49:07.977Z,1002.44
2022-09-14T03:50:07.979Z,1002.44
2022-09-14T03:51:07.984Z,1002.41
2022-09-14T03:52:07.976Z,1002.40
2022-09-14T03:53:07.979Z,1002.42
2022-09-14T03:54:07.979Z,1002.39
2022-09-14T03:55:07.983Z,1002.38
2022-09-14T03:56:07.979Z,1002.46
2022-09-14T03:57:07.983Z,1002.46
2022-09-14T03:58:07.977Z,1002.43
2022-09-14T03:59:07.974Z,1002.43
2022-09-14T04:00:07.983Z,1002.41
2022-09-14T04:01:07.987Z,1002.40
2022-09-14T04:02:08.076Z,1002.43
2022-09-14T04:03:08.070Z,1002.38
2022-09-14T04:04:07.976Z,1002.39
2022-09-14T04:05:07.979Z,1002.40
2022-09-14T04:06:07.979Z,1002.40
2022-09-14T04:07:07.978Z,1002.37
2022-09-14T04:08:07.980Z,1002.37
2022-09-14T04:09:07.975Z,1002.41
2022-09-14T04:10:07.980Z,1002.41
2022-09-14T04:11:07.978Z,1002.41
2022-09-14T04:12:07.978Z,1002.41
2022-09-14T04:13:07.976Z,1002.39
2022-09-14T04:14:07.975Z,1002.38
2022-09-14T04:15:07.977Z,1002.39
2022-09-14T04:16:08.034Z,1002.39
2022-09-14T04:17:07.974Z,1002.42
2022-09-14T04:18:07.976Z,1002.41
2022-09-14T04:19:08.076Z,1002.46
2022-09-14T04:20:07.976Z,1002.46
2022-09-14T04:21:08.779Z,1002.50
2022-09-14T04:22:07.974Z,1002.48
2022-09-14T04:23:07.977Z,1002.50
2022-09-14T04:24:15.009Z,1002.46
2022-09-14T04:25:07.972Z,1002.49
2022-09-14T04:26:07.976Z,1002.49
2022-09-14T04:27:07.975Z,1002.49
2022-09-14T04:28:20.076Z,1002.42
2022-09-14T04:29:07.973Z,1002.43
2022-09-14T04:30:07.976Z,1002.46
2022-09-14T04:31:08.006Z,1002.45
2022-09-14T04:32:08.028Z,1002.47
2022-09-14T04:33:07.977Z,1002.42
2022-09-14T04:34:07.974Z,1002.41
2022-09-14T04:35:07.994Z,1002.36
2022-09-14T04:36:07.979Z,1002.30
2022-09-14T04:37:07.974Z,1002.30
2022-09-14T04:38:07.978Z,1002.25
2022-09-14T04:39:07.972Z,1002.30
2022-09-14T04:40:08.059Z,1002.26
2022-09-14T04:41:07.971Z,1002.26
2022-09-14T04:42:07.971Z,1002.33
2022-09-14T04:43:07.968Z,1002.35
2022-09-14T04:44:07.973Z,1002.33
2022-09-14T04:45:07.971Z,1002.39
2022-09-14T04:46:08.034Z,1002.41
2022-09-14T04:47:07.970Z,1002.39
2022-09-14T04:48:07.973Z,1002.41
2022-09-14T04:49:07.975Z,1002.42
2022-09-14T04:50:07.977Z,1002.46
2022-09-14T04:51:07.994Z,1002.44
2022-09-14T04:52:07.977Z,1002.48
2022-09-14T04:53:07.972Z,1002.48
2022-09-14T04:54:07.975Z,1002.45
2022-09-14T04:55:07.974Z,1002.36
2022-09-14T04:56:07.978Z,1002.35
2022-09-14T04:57:07.968Z,1002.30
2022-09-14T04:58:07.974Z,1002.31
2022-09-14T04:59:07.977Z,1002.34
2022-09-14T05:00:07.970Z,1002.35
2022-09-14T05:01:07.998Z,1002.36
2022-09-14T05:02:08.032Z,1002.39
2022-09-14T05:03:07.989Z,1002.33
2022-09-14T05:04:07.967Z,1002.36
2022-09-14T05:05:07.970Z,1002.33
2022-09-14T05:06:07.974Z,1002.35
2022-09-14T05:07:07.997Z,1002.29
2022-09-14T05:08:07.971Z,1002.28
2022-09-14T05:09:07.968Z,1002.25
2022-09-14T05:10:07.978Z,1002.18
2022-09-14T05:11:07.965Z,1002.20
2022-09-14T05:12:07.973Z,1002.22
2022-09-14T05:13:07.968Z,1002.17
2022-09-14T05:14:07.976Z,1002.13
2022-09-14T05:15:07.966Z,1002.14
2022-09-14T05:16:08.017Z,1002.10
2022-09-14T05:17:07.965Z,1002.12
2022-09-14T05:18:07.968Z,1002.12
2022-09-14T05:19:07.970Z,1002.14
2022-09-14T05:20:07.967Z,1002.14
2022-09-14T05:21:08.640Z,1002.19
2022-09-14T05:22:07.967Z,1002.19
2022-09-14T05:23:07.997Z,1002.13
2022-09-14T05:24:07.966Z,1002.19
2022-09-14T05:25:07.965Z,1002.16
2022-09-14T05:26:07.967Z,1002.17
2022-09-14T05:27:07.966Z,1002.17
2022-09-14T05:28:07.971Z,1002.22
2022-09-14T05:29:07.973Z,1002.26
2022-09-14T05:30:07.970Z,1002.27
2022-09-14T05:31:08.039Z,1002.35
2022-09-14T05:32:08.016Z,1002.35
2022-09-14T05:33:07.968Z,1002.31
2022-09-14T05:34:07.968Z,1002.29
2022-09-14T05:35:07.968Z,1002.22
2022-09-14T05:36:07.966Z,1002.17
2022-09-14T05:37:07.962Z,1002.16
2022-09-14T05:38:07.965Z,1002.17
2022-09-14T05:39:07.988Z,1002.18
2022-09-14T05:40:08.090Z,1002.18
2022-09-14T05:41:07.971Z,1002.17
2022-09-14T05:42:07.966Z,1002.21
2022-09-14T05:43:07.961Z,1002.22
2022-09-14T05:44:07.966Z,1002.26
2022-09-14T05:45:07.968Z,1002.25
2022-09-14T05:46:08.094Z,1002.30
2022-09-14T05:47:07.965Z,1002.27
2022-09-14T05:48:07.968Z,1002.21
2022-09-14T05:49:07.964Z,1002.24
2022-09-14T05:50:07.966Z,1002.26
2022-09-14T05:51:07.965Z,1002.24
2022-09-14T05:52:07.967Z,1002.27
2022-09-14T05:53:07.968Z,1002.28
2022-09-14T05:54:07.966Z,1002.25
2022-09-14T05:55:07.980Z,1002.29
2022-09-14T05:56:07.964Z,1002.29
2022-09-14T05:57:07.964Z,1002.29
2022-09-14T05:58:07.964Z,1002.28
2022-09-14T05:59:07.965Z,1002.33
2022-09-14T06:00:07.970Z,1002.31
2022-09-14T06:01:07.964Z,1002.30
2022-09-14T06:02:08.037Z,1002.30
2022-09-14T06:03:07.962Z,1002.28
2022-09-14T06:04:07.970Z,1002.24
2022-09-14T06:05:08.025Z,1002.25
2022-09-14T06:06:07.965Z,1002.28
2022-09-14T06:07:18.436Z,1002.26
2022-09-14T06:08:07.965Z,1002.24
2022-09-14T06:09:07.965Z,1002.21
2022-09-14T06:10:07.963Z,1002.25
2022-09-14T06:11:08.073Z,1002.20
2022-09-14T06:12:07.966Z,1002.18
2022-09-14T06:13:07.965Z,1002.21
2022-09-14T06:14:07.967Z,1002.17
2022-09-14T06:15:07.969Z,1002.18
2022-09-14T06:16:07.964Z,1002.17
2022-09-14T06:17:07.963Z,1002.15
2022-09-14T06:18:07.963Z,1002.17
2022-09-14T06:19:07.968Z,1002.17
2022-09-14T06:20:07.965Z,1002.16
2022-09-14T06:21:07.962Z,1002.16
2022-09-14T06:22:07.968Z,1002.16
2022-09-14T06:23:07.972Z,1002.16
2022-09-14T06:24:07.964Z,1002.22
2022-09-14T06:25:07.967Z,1002.20
2022-09-14T06:26:07.963Z,1002.19
2022-09-14T06:27:07.981Z,1002.23
2022-09-14T06:28:07.967Z,1002.17
2022-09-14T06:29:08.029Z,1002.19
2022-09-14T06:30:07.969Z,1002.17
2022-09-14T06:31:07.960Z,1002.15
2022-09-14T06:32:08.016Z,1002.14
2022-09-14T06:33:07.962Z,1002.13
2022-09-14T06:34:07.967Z,1002.16
2022-09-14T06:35:12.217Z,1002.17
2022-09-14T06:36:07.962Z,1002.13
2022-09-14T06:37:07.970Z,1002.10
2022-09-14T06:38:07.963Z,1002.10
2022-09-14T06:39:07.964Z,1002.10
2022-09-14T06:40:08.007Z,1002.12
2022-09-14T06:41:07.963Z,1002.09
2022-09-14T06:42:07.959Z,1002.07
2022-09-14T06:43:08.026Z,1002.08
2022-09-14T06:44:07.969Z,1002.06
2022-09-14T06:45:07.964Z,1002.13
2022-09-14T06:46:07.970Z,1002.16
2022-09-14T06:47:07.965Z,1002.17
2022-09-14T06:48:07.967Z,1002.22
2022-09-14T06:49:07.964Z,1002.22
2022-09-14T06:50:07.967Z,1002.22
2022-09-14T06:51:07.962Z,1002.21
2022-09-14T06:52:07.963Z,1002.17
2022-09-14T06:53:07.964Z,1002.25
2022-09-14T06:54:07.966Z,1002.26
2022-09-14T06:55:07.964Z,1002.24
2022-09-14T06:56:07.967Z,1002.27
2022-09-14T06:57:07.972Z,1002.28
2022-09-14T06:58:07.965Z,1002.22
2022-09-14T06:59:07.995Z,1002.26
2022-09-14T07:00:07.972Z,1002.28
2022-09-14T07:01:07.967Z,1002.29
2022-09-14T07:02:07.972Z,1002.27
2022-09-14T07:03:08.055Z,1002.26
2022-09-14T07:04:07.971Z,1002.30
2022-09-14T07:05:07.967Z,1002.28
2022-09-14T07:06:07.966Z,1002.29
2022-09-14T07:07:07.966Z,1002.27
2022-09-14T07:08:11.931Z,1002.26
2022-09-14T07:09:07.970Z,1002.31
2022-09-14T07:10:07.975Z,1002.30
2022-09-14T07:11:07.976Z,1002.34
2022-09-14T07:12:07.972Z,1002.32
2022-09-14T07:13:07.975Z,1002.31
2022-09-14T07:14:07.974Z,1002.31
2022-09-14T07:15:07.990Z,1002.29
2022-09-14T07:16:07.977Z,1002.26
2022-09-14T07:17:07.976Z,1002.24
2022-09-14T07:18:07.986Z,1002.30
2022-09-14T07:19:07.974Z,1002.32
2022-09-14T07:20:07.981Z,1002.30
2022-09-14T07:21:07.977Z,1002.27
2022-09-14T07:22:07.979Z,1002.31
2022-09-14T07:23:07.983Z,1002.30
2022-09-14T07:24:07.985Z,1002.26
2022-09-14T07:25:07.982Z,1002.26
2022-09-14T07:26:07.986Z,1002.26
2022-09-14T07:27:07.983Z,1002.31
2022-09-14T07:28:07.997Z,1002.32
2022-09-14T07:29:07.982Z,1002.31
2022-09-14T07:30:07.990Z,1002.33
2022-09-14T07:31:08.050Z,1002.34
2022-09-14T07:32:07.993Z,1002.36
2022-09-14T07:33:07.997Z,1002.39
2022-09-14T07:34:07.988Z,1002.37
2022-09-14T07:35:07.987Z,1002.39
2022-09-14T07:36:07.990Z,1002.42
2022-09-14T07:37:07.999Z,1002.39
2022-09-14T07:38:07.994Z,1002.44
2022-09-14T07:39:07.995Z,1002.45
2022-09-14T07:40:08.112Z,1002.42
2022-09-14T07:41:07.992Z,1002.48
2022-09-14T07:42:08.003Z,1002.49
2022-09-14T07:43:07.995Z,1002.44
2022-09-14T07:44:08.006Z,1002.41
2022-09-14T07:45:07.996Z,1002.36
2022-09-14T07:46:08.055Z,1002.60
2022-09-14T07:47:08.028Z,1003.29
2022-09-14T07:48:08.006Z,1003.90
2022-09-14T07:49:08.001Z,1003.70
2022-09-14T07:50:08.001Z,1003.58
2022-09-14T07:51:08.009Z,1003.75
2022-09-14T07:52:08.008Z,1004.01
2022-09-14T07:53:08.007Z,1004.02
2022-09-14T07:54:08.009Z,1003.89
2022-09-14T07:55:08.013Z,1003.92
2022-09-14T07:56:08.007Z,1004.33
2022-09-14T07:57:08.015Z,1004.44
2022-09-14T07:58:08.015Z,1005.03
2022-09-14T07:59:33.384Z,1005.34
2022-09-14T08:00:08.019Z,1004.58
2022-09-14T08:01:08.099Z,1003.70
2022-09-14T08:02:08.133Z,1003.70
2022-09-14T08:03:08.124Z,1002.64
2022-09-14T08:04:08.028Z,1002.60
2022-09-14T08:05:08.030Z,1002.42
2022-09-14T08:06:08.033Z,1002.47
2022-09-14T08:07:08.031Z,1002.46
2022-09-14T08:08:08.034Z,1003.05
2022-09-14T08:09:08.031Z,1002.58
2022-09-14T08:10:08.030Z,1003.48
2022-09-14T08:11:08.048Z,1003.11
2022-09-14T08:12:08.040Z,1003.07
2022-09-14T08:13:08.043Z,1003.43
2022-09-14T08:14:08.043Z,1003.75
2022-09-14T08:15:08.048Z,1003.72
2022-09-14T08:16:08.090Z,1003.38
2022-09-14T08:17:08.050Z,1004.28
2022-09-14T08:18:08.053Z,1004.70
2022-09-14T08:19:08.080Z,1005.81
2022-09-14T08:20:08.059Z,1005.84
2022-09-14T08:21:08.062Z,1006.56
2022-09-14T08:22:08.063Z,1004.53
2022-09-14T08:23:08.062Z,1004.95
2022-09-14T08:24:08.067Z,1005.24
2022-09-14T08:25:08.069Z,1005.97
2022-09-14T08:26:08.073Z,1006.61
2022-09-14T08:27:09.232Z,1006.79
2022-09-14T08:28:08.076Z,1006.15
2022-09-14T08:29:08.088Z,1006.44
2022-09-14T08:30:08.088Z,1007.18
2022-09-14T08:31:08.089Z,1006.71
2022-09-14T08:32:08.169Z,1007.00
2022-09-14T08:33:08.094Z,1006.65
2022-09-14T08:34:08.098Z,1006.99
2022-09-14T08:35:08.127Z,1006.71
2022-09-14T08:36:08.106Z,1006.40
2022-09-14T08:37:08.108Z,1005.38
2022-09-14T08:38:08.122Z,1004.55
2022-09-14T08:39:08.121Z,1004.83
2022-09-14T08:40:08.183Z,1004.72
2022-09-14T08:41:08.131Z,1004.58
2022-09-14T08:42:08.126Z,1004.25
2022-09-14T08:43:08.135Z,1004.46
2022-09-14T08:44:08.140Z,1002.65
2022-09-14T08:45:09.889Z,1002.57
2022-09-14T08:46:08.207Z,1002.68
2022-09-14T08:47:08.156Z,1002.69
2022-09-14T08:48:08.162Z,1002.46
2022-09-14T08:49:08.167Z,1002.45
2022-09-14T08:50:08.172Z,1002.72
2022-09-14T08:51:08.287Z,1002.69
2022-09-14T08:52:08.187Z,1002.67
2022-09-14T08:53:08.187Z,1002.61
2022-09-14T08:54:08.200Z,1002.57
2022-09-14T08:55:08.204Z,1003.07
2022-09-14T08:56:08.204Z,1003.38
2022-09-14T08:57:08.215Z,1003.35
2022-09-14T08:58:08.217Z,1002.79
2022-09-14T08:59:08.212Z,1002.79
2022-09-14T09:00:08.225Z,1003.10
2022-09-14T09:01:08.295Z,1002.69
2022-09-14T09:02:08.251Z,1002.78
2022-09-14T09:03:08.258Z,1002.79
2022-09-14T09:04:08.292Z,1002.65
2022-09-14T09:05:08.260Z,1002.56
2022-09-14T09:06:09.468Z,1002.49
2022-09-14T09:07:08.264Z,1002.49
2022-09-14T09:08:08.328Z,1002.43
2022-09-14T09:09:08.288Z,1002.31
2022-09-14T09:10:08.285Z,1002.26
2022-09-14T09:11:08.291Z,1002.25
2022-09-14T09:12:08.290Z,1002.24
2022-09-14T09:13:08.306Z,1002.27
2022-09-14T09:14:08.301Z,1002.26
2022-09-14T09:15:08.314Z,1002.15
2022-09-14T09:16:08.423Z,1002.16
2022-09-14T09:17:08.321Z,1002.16
2022-09-14T09:18:08.333Z,1002.23
2022-09-14T09:19:08.334Z,1002.24
2022-09-14T09:20:08.337Z,1002.20
2022-09-14T09:21:08.348Z,1002.28
2022-09-14T09:22:08.351Z,1002.29
2022-09-14T09:23:08.352Z,1002.28
2022-09-14T09:24:08.386Z,1002.30
2022-09-14T09:25:08.369Z,1002.29
2022-09-14T09:26:08.373Z,1002.28
2022-09-14T09:27:08.377Z,1002.27
2022-09-14T09:28:08.387Z,1002.26
2022-09-14T09:29:08.385Z,1002.27
2022-09-14T09:30:08.388Z,1002.23
2022-09-14T09:31:13.965Z,1002.21
2022-09-14T09:32:08.458Z,1002.18
2022-09-14T09:33:08.403Z,1002.20
2022-09-14T09:34:08.406Z,1002.23
2022-09-14T09:35:08.410Z,1002.23
2022-09-14T09:36:08.423Z,1002.25
2022-09-14T09:37:08.424Z,1002.30
2022-09-14T09:38:08.463Z,1002.28
2022-09-14T09:39:08.432Z,1002.28
2022-09-14T09:40:08.621Z,1002.36
2022-09-14T09:41:08.435Z,1002.33
2022-09-14T09:42:08.437Z,1002.31
2022-09-14T09:43:08.444Z,1002.24
2022-09-14T09:44:08.450Z,1002.32
2022-09-14T09:45:08.452Z,1002.44
2022-09-14T09:46:08.542Z,1002.50
2022-09-14T09:47:08.535Z,1002.53
2022-09-14T09:48:08.468Z,1002.66
2022-09-14T09:49:08.469Z,1002.49
2022-09-14T09:50:08.468Z,1002.52
2022-09-14T09:51:08.480Z,1002.67
2022-09-14T09:52:08.481Z,1002.61
2022-09-14T09:53:08.488Z,1002.82
2022-09-14T09:54:08.493Z,1002.63
2022-09-14T09:55:08.499Z,1002.48
2022-09-14T09:56:08.526Z,1002.31
2022-09-14T09:57:08.505Z,1002.26
2022-09-14T09:58:08.512Z,1002.17
2022-09-14T09:59:08.512Z,1002.17
2022-09-14T10:00:08.523Z,1002.18
2022-09-14T10:01:12.245Z,1002.22
2022-09-14T10:02:08.616Z,1002.20
2022-09-14T10:03:08.536Z,1002.10
2022-09-14T10:04:08.550Z,1002.09
2022-09-14T10:05:08.549Z,1002.13
2022-09-14T10:06:08.551Z,1002.14
2022-09-14T10:07:08.558Z,1002.14
2022-09-14T10:08:11.537Z,1002.14
2022-09-14T10:09:08.570Z,1002.14
2022-09-14T10:10:08.573Z,1002.06
2022-09-14T10:11:08.574Z,1002.10
2022-09-14T10:12:08.606Z,1002.36
2022-09-14T10:13:08.590Z,1002.32
2022-09-14T10:14:08.596Z,1002.15
2022-09-14T10:15:08.605Z,1002.10
2022-09-14T10:16:08.680Z,1002.03
2022-09-14T10:17:08.610Z,1001.97
2022-09-14T10:18:08.621Z,1001.89
2022-09-14T10:19:08.623Z,1001.83
2022-09-14T10:20:08.629Z,1001.87
2022-09-14T10:21:08.634Z,1001.90
2022-09-14T10:22:08.636Z,1001.94
2022-09-14T10:23:08.648Z,1001.90
2022-09-14T10:24:08.641Z,1001.87
2022-09-14T10:25:08.649Z,1001.87
2022-09-14T10:26:08.658Z,1001.96
2022-09-14T10:27:08.667Z,1001.97
2022-09-14T10:28:08.682Z,1001.95
2022-09-14T10:29:08.669Z,1001.97
2022-09-14T10:30:08.675Z,1002.06
2022-09-14T10:31:08.773Z,1002.07
2022-09-14T10:32:08.689Z,1002.10
2022-09-14T10:33:08.689Z,1002.18
2022-09-14T10:34:08.693Z,1002.24
2022-09-14T10:35:08.749Z,1002.33
2022-09-14T10:36:08.706Z,1002.43
2022-09-14T10:37:08.708Z,1002.45
2022-09-14T10:38:08.721Z,1002.18
2022-09-14T10:39:08.724Z,1002.05
2022-09-14T10:40:08.795Z,1002.07
2022-09-14T10:41:08.726Z,1002.01
2022-09-14T10:42:08.731Z,1001.94
2022-09-14T10:43:08.739Z,1002.01
2022-09-14T10:44:08.946Z,1002.06
2022-09-14T10:45:08.752Z,1001.99
2022-09-14T10:46:08.776Z,1002.05
2022-09-14T10:47:08.756Z,1002.03
2022-09-14T10:48:08.759Z,1001.98
2022-09-14T10:49:08.764Z,1001.91
2022-09-14T10:50:08.771Z,1002.08
2022-09-14T10:51:08.774Z,1001.95
2022-09-14T10:52:08.783Z,1001.94
2022-09-14T10:53:08.783Z,1002.11
2022-09-14T10:54:08.788Z,1002.11
2022-09-14T10:55:08.799Z,1001.94
2022-09-14T10:56:08.802Z,1001.91
2022-09-14T10:57:08.809Z,1002.12
2022-09-14T10:58:10.799Z,1002.69
2022-09-14T10:59:08.815Z,1002.34
2022-09-14T11:00:08.926Z,1002.56
2022-09-14T11:01:08.837Z,1002.53
2022-09-14T11:02:08.934Z,1002.29
2022-09-14T11:03:08.913Z,1001.91
2022-09-14T11:04:08.841Z,1001.88
2022-09-14T11:05:08.850Z,1002.32
2022-09-14T11:06:08.852Z,1002.13
2022-09-14T11:07:08.865Z,1001.87
2022-09-14T11:08:08.865Z,1001.85
2022-09-14T11:09:08.869Z,1001.81
2022-09-14T11:10:08.880Z,1001.93
2022-09-14T11:11:11.432Z,1001.90
2022-09-14T11:12:08.894Z,1001.93
2022-09-14T11:13:08.895Z,1001.77
2022-09-14T11:14:08.899Z,1001.78
2022-09-14T11:15:08.909Z,1001.81
2022-09-14T11:16:09.078Z,1001.90
2022-09-14T11:17:08.916Z,1001.99
2022-09-14T11:18:08.924Z,1001.97
2022-09-14T11:19:08.931Z,1001.93
2022-09-14T11:20:08.936Z,1001.94
2022-09-14T11:21:08.945Z,1001.92
2022-09-14T11:22:08.947Z,1001.92
2022-09-14T11:23:08.950Z,1001.85
2022-09-14T11:24:08.967Z,1001.84
2022-09-14T11:25:08.966Z,1001.90
2022-09-14T11:26:08.966Z,1001.94
2022-09-14T11:27:08.978Z,1001.78
2022-09-14T11:28:08.982Z,1001.74
2022-09-14T11:29:08.992Z,1001.76
2022-09-14T11:30:09.077Z,1001.81
2022-09-14T11:31:09.045Z,1001.80
2022-09-14T11:32:22.747Z,1001.72
2022-09-14T11:33:09.020Z,1001.89
2022-09-14T11:34:09.020Z,1001.90
2022-09-14T11:35:09.080Z,1001.89
2022-09-14T11:36:09.031Z,1001.96
2022-09-14T11:37:09.039Z,1002.02
2022-09-14T11:38:09.051Z,1001.83
2022-09-14T11:39:09.051Z,1001.83
2022-09-14T11:40:09.196Z,1001.84
2022-09-14T11:41:09.067Z,1001.85
2022-09-14T11:42:09.075Z,1001.80
2022-09-14T11:43:09.082Z,1001.78
2022-09-14T11:44:09.082Z,1001.86
2022-09-14T11:45:09.089Z,1001.90
2022-09-14T11:46:09.151Z,1001.87
2022-09-14T11:47:09.096Z,1001.93
2022-09-14T11:48:38.317Z,1001.81
2022-09-14T11:49:09.118Z,1001.75
2022-09-14T11:50:09.122Z,1001.69
2022-09-14T11:51:09.127Z,1001.73
2022-09-14T11:52:09.133Z,1001.76
2022-09-14T11:53:09.142Z,1001.70
2022-09-14T11:54:09.151Z,1001.66
2022-09-14T11:55:09.164Z,1001.59
2022-09-14T11:56:09.159Z,1001.52
2022-09-14T11:57:09.171Z,1001.58
2022-09-14T11:58:09.175Z,1001.57
2022-09-14T11:59:09.194Z,1001.55
2022-09-14T12:00:09.200Z,1001.52
2022-09-14T12:01:09.194Z,1001.53
2022-09-14T12:02:09.261Z,1001.58
2022-09-14T12:03:09.321Z,1001.51
2022-09-14T12:04:09.416Z,1001.51
2022-09-14T12:05:09.224Z,1001.50